XLL weather

Allentown Queen City Municipal Airport
Allentown, Pennsylvania, United States

Public forecast

Using degrees Fahrenheit for public forecast. Weather courtesy of forecast.io.

Current aviation weather report (METAR) for Allentown Queen City Municipal Airport

Retrieved 2020/02/29 03:15 UTC (18 minutes ago):

KXLL 290315Z AUTO 27007KT 10SM CLR 00/M09 A2988 RMK AO2

Closest aviation forecast (TAF) to Allentown Queen City Municipal Airport

Closest forecast is Lehigh Valley International Airport, 5.4 nm (9.9 km) NNE. Retrieved 2020-02-29 00:22 UTC (3 hours ago):

TAF KABE 282320Z 2900/2924 28010KT P6SM SCT090 FM291500 28015G25KT P6SM BKN060